sensor_id;sensor_type;location;lat;lon;timestamp;P1;durP1;ratioP1;P2;durP2;ratioP2
37495;SDS011;23346;52.088;4.746;2022-07-03T00:00:25;13.83;;;8.47;;
37495;SDS011;23346;52.088;4.746;2022-07-03T00:02:51;12.87;;;9.83;;
37495;SDS011;23346;52.088;4.746;2022-07-03T00:05:17;16.63;;;9.30;;
37495;SDS011;23346;52.088;4.746;2022-07-03T00:07:43;14.73;;;9.27;;
37495;SDS011;23346;52.088;4.746;2022-07-03T00:10:10;15.93;;;8.70;;
37495;SDS011;23346;52.088;4.746;2022-07-03T00:12:36;14.97;;;9.40;;
37495;SDS011;23346;52.088;4.746;2022-07-03T00:15:02;13.67;;;9.30;;
37495;SDS011;23346;52.088;4.746;2022-07-03T00:17:28;11.53;;;8.90;;
37495;SDS011;23346;52.088;4.746;2022-07-03T00:19:55;11.87;;;8.33;;
37495;SDS011;23346;52.088;4.746;2022-07-03T00:22:21;14.90;;;7.77;;
37495;SDS011;23346;52.088;4.746;2022-07-03T00:25:01;10.47;;;7.43;;
37495;SDS011;23346;52.088;4.746;2022-07-03T00:27:28;10.90;;;7.73;;
37495;SDS011;23346;52.088;4.746;2022-07-03T00:29:55;12.60;;;8.05;;
37495;SDS011;23346;52.088;4.746;2022-07-03T00:32:22;9.33;;;6.57;;
37495;SDS011;23346;52.088;4.746;2022-07-03T00:34:52;9.07;;;6.40;;
37495;SDS011;23346;52.088;4.746;2022-07-03T00:37:18;9.97;;;6.60;;
37495;SDS011;23346;52.088;4.746;2022-07-03T00:39:44;10.20;;;5.90;;
37495;SDS011;23346;52.088;4.746;2022-07-03T00:42:11;10.10;;;6.27;;
37495;SDS011;23346;52.088;4.746;2022-07-03T00:44:48;8.30;;;5.93;;
37495;SDS011;23346;52.088;4.746;2022-07-03T00:47:15;12.50;;;6.00;;
37495;SDS011;23346;52.088;4.746;2022-07-03T00:49:43;11.57;;;6.27;;
37495;SDS011;23346;52.088;4.746;2022-07-03T00:52:09;8.60;;;5.73;;
37495;SDS011;23346;52.088;4.746;2022-07-03T00:54:37;8.90;;;5.07;;
37495;SDS011;23346;52.088;4.746;2022-07-03T00:57:04;7.03;;;3.97;;
37495;SDS011;23346;52.088;4.746;2022-07-03T00:59:31;9.80;;;4.37;;
37495;SDS011;23346;52.088;4.746;2022-07-03T01:02:06;6.83;;;4.37;;
37495;SDS011;23346;52.088;4.746;2022-07-03T01:04:45;5.80;;;2.97;;
37495;SDS011;23346;52.088;4.746;2022-07-03T01:13:01;2.88;;;1.80;;
37495;SDS011;23346;52.088;4.746;2022-07-03T01:15:43;1.60;;;1.50;;
37495;SDS011;23346;52.088;4.746;2022-07-03T01:20:36;2.90;;;1.67;;
37495;SDS011;23346;52.088;4.746;2022-07-03T01:23:05;2.67;;;1.85;;
37495;SDS011;23346;52.088;4.746;2022-07-03T01:25:44;3.10;;;2.15;;
37495;SDS011;23346;52.088;4.746;2022-07-03T01:28:12;7.40;;;1.90;;
37495;SDS011;23346;52.088;4.746;2022-07-03T01:30:40;2.80;;;2.10;;
37495;SDS011;23346;52.088;4.746;2022-07-03T01:33:08;3.50;;;2.45;;
37495;SDS011;23346;52.088;4.746;2022-07-03T01:35:43;4.63;;;1.83;;
37495;SDS011;23346;52.088;4.746;2022-07-03T01:38:12;3.13;;;1.85;;
37495;SDS011;23346;52.088;4.746;2022-07-03T01:40:40;5.20;;;2.13;;
37495;SDS011;23346;52.088;4.746;2022-07-03T01:43:07;2.63;;;1.80;;
37495;SDS011;23346;52.088;4.746;2022-07-03T01:45:35;3.67;;;1.60;;
37495;SDS011;23346;52.088;4.746;2022-07-03T01:48:02;3.72;;;1.67;;
37495;SDS011;23346;52.088;4.746;2022-07-03T01:50:28;3.13;;;1.50;;
37495;SDS011;23346;52.088;4.746;2022-07-03T01:52:54;3.90;;;1.60;;
37495;SDS011;23346;52.088;4.746;2022-07-03T01:55:22;2.85;;;1.48;;
37495;SDS011;23346;52.088;4.746;2022-07-03T01:57:49;3.67;;;1.30;;
37495;SDS011;23346;52.088;4.746;2022-07-03T02:00:17;2.80;;;1.60;;
37495;SDS011;23346;52.088;4.746;2022-07-03T02:02:52;4.13;;;1.55;;
37495;SDS011;23346;52.088;4.746;2022-07-03T02:05:33;3.80;;;1.50;;
37495;SDS011;23346;52.088;4.746;2022-07-03T02:08:02;5.47;;;1.60;;
37495;SDS011;23346;52.088;4.746;2022-07-03T02:10:29;4.05;;;1.63;;
37495;SDS011;23346;52.088;4.746;2022-07-03T02:13:00;3.00;;;1.15;;
37495;SDS011;23346;52.088;4.746;2022-07-03T02:15:31;3.50;;;1.23;;
37495;SDS011;23346;52.088;4.746;2022-07-03T02:17:57;5.75;;;1.77;;
37495;SDS011;23346;52.088;4.746;2022-07-03T02:20:26;1.85;;;1.00;;
37495;SDS011;23346;52.088;4.746;2022-07-03T02:22:57;1.55;;;1.10;;
37495;SDS011;23346;52.088;4.746;2022-07-03T02:25:23;3.45;;;1.15;;
37495;SDS011;23346;52.088;4.746;2022-07-03T02:27:50;9.63;;;1.10;;
37495;SDS011;23346;52.088;4.746;2022-07-03T02:30:20;8.48;;;1.10;;
37495;SDS011;23346;52.088;4.746;2022-07-03T02:32:48;1.88;;;1.00;;
37495;SDS011;23346;52.088;4.746;2022-07-03T02:35:21;1.30;;;0.68;;
37495;SDS011;23346;52.088;4.746;2022-07-03T02:37:53;5.70;;;1.20;;
37495;SDS011;23346;52.088;4.746;2022-07-03T02:45:40;2.38;;;1.33;;
37495;SDS011;23346;52.088;4.746;2022-07-03T02:48:18;4.72;;;1.20;;
37495;SDS011;23346;52.088;4.746;2022-07-03T02:50:46;3.35;;;1.13;;
37495;SDS011;23346;52.088;4.746;2022-07-03T02:55:51;1.90;;;1.30;;
37495;SDS011;23346;52.088;4.746;2022-07-03T03:01:13;2.72;;;1.35;;
37495;SDS011;23346;52.088;4.746;2022-07-03T03:03:44;1.92;;;1.20;;
37495;SDS011;23346;52.088;4.746;2022-07-03T03:06:15;3.78;;;1.10;;
37495;SDS011;23346;52.088;4.746;2022-07-03T03:11:08;2.65;;;1.27;;
37495;SDS011;23346;52.088;4.746;2022-07-03T03:13:34;4.57;;;1.48;;
37495;SDS011;23346;52.088;4.746;2022-07-03T03:18:27;4.47;;;1.15;;
37495;SDS011;23346;52.088;4.746;2022-07-03T03:20:56;3.83;;;1.10;;
37495;SDS011;23346;52.088;4.746;2022-07-03T03:26:09;4.65;;;1.00;;
37495;SDS011;23346;52.088;4.746;2022-07-03T03:28:35;2.85;;;0.80;;
37495;SDS011;23346;52.088;4.746;2022-07-03T03:31:01;2.88;;;0.80;;
37495;SDS011;23346;52.088;4.746;2022-07-03T03:33:33;3.88;;;0.90;;
37495;SDS011;23346;52.088;4.746;2022-07-03T03:35:59;6.63;;;0.95;;
37495;SDS011;23346;52.088;4.746;2022-07-03T03:38:25;1.83;;;1.13;;
37495;SDS011;23346;52.088;4.746;2022-07-03T03:40:51;10.10;;;1.65;;
37495;SDS011;23346;52.088;4.746;2022-07-03T03:43:16;2.55;;;0.95;;
37495;SDS011;23346;52.088;4.746;2022-07-03T03:45:42;3.90;;;0.98;;
37495;SDS011;23346;52.088;4.746;2022-07-03T03:48:08;4.13;;;0.90;;
37495;SDS011;23346;52.088;4.746;2022-07-03T03:50:34;3.90;;;0.90;;
37495;SDS011;23346;52.088;4.746;2022-07-03T03:53:00;6.15;;;0.90;;
37495;SDS011;23346;52.088;4.746;2022-07-03T03:55:26;9.32;;;1.05;;
37495;SDS011;23346;52.088;4.746;2022-07-03T03:57:52;5.25;;;0.90;;
37495;SDS011;23346;52.088;4.746;2022-07-03T04:00:18;3.47;;;1.00;;
37495;SDS011;23346;52.088;4.746;2022-07-03T04:02:44;3.47;;;1.00;;
37495;SDS011;23346;52.088;4.746;2022-07-03T04:05:10;4.95;;;1.10;;
37495;SDS011;23346;52.088;4.746;2022-07-03T04:07:36;7.20;;;1.38;;
37495;SDS011;23346;52.088;4.746;2022-07-03T04:10:02;3.30;;;1.02;;
37495;SDS011;23346;52.088;4.746;2022-07-03T04:12:28;2.85;;;1.00;;
37495;SDS011;23346;52.088;4.746;2022-07-03T04:14:57;5.72;;;1.05;;
37495;SDS011;23346;52.088;4.746;2022-07-03T04:17:23;7.30;;;1.23;;
37495;SDS011;23346;52.088;4.746;2022-07-03T04:19:49;5.50;;;0.90;;
37495;SDS011;23346;52.088;4.746;2022-07-03T04:22:15;7.38;;;1.80;;
37495;SDS011;23346;52.088;4.746;2022-07-03T04:24:41;7.53;;;1.50;;
37495;SDS011;23346;52.088;4.746;2022-07-03T04:27:07;6.75;;;1.17;;
37495;SDS011;23346;52.088;4.746;2022-07-03T04:29:33;4.20;;;1.10;;
37495;SDS011;23346;52.088;4.746;2022-07-03T04:31:59;2.80;;;1.17;;
37495;SDS011;23346;52.088;4.746;2022-07-03T04:34:25;5.13;;;1.40;;
37495;SDS011;23346;52.088;4.746;2022-07-03T04:36:50;5.43;;;1.05;;
37495;SDS011;23346;52.088;4.746;2022-07-03T04:39:16;6.45;;;1.15;;
37495;SDS011;23346;52.088;4.746;2022-07-03T04:41:43;6.88;;;1.23;;
37495;SDS011;23346;52.088;4.746;2022-07-03T04:44:08;5.97;;;1.00;;
37495;SDS011;23346;52.088;4.746;2022-07-03T04:46:35;4.57;;;1.13;;
37495;SDS011;23346;52.088;4.746;2022-07-03T04:49:01;6.60;;;1.27;;
37495;SDS011;23346;52.088;4.746;2022-07-03T04:51:27;4.55;;;1.08;;
37495;SDS011;23346;52.088;4.746;2022-07-03T04:53:53;8.02;;;1.63;;
37495;SDS011;23346;52.088;4.746;2022-07-03T04:56:19;4.95;;;1.25;;
37495;SDS011;23346;52.088;4.746;2022-07-03T04:58:45;7.68;;;1.55;;
37495;SDS011;23346;52.088;4.746;2022-07-03T05:01:11;5.72;;;1.40;;
37495;SDS011;23346;52.088;4.746;2022-07-03T05:03:37;3.22;;;1.08;;
37495;SDS011;23346;52.088;4.746;2022-07-03T05:06:03;6.38;;;1.35;;
37495;SDS011;23346;52.088;4.746;2022-07-03T05:08:29;7.22;;;1.38;;
37495;SDS011;23346;52.088;4.746;2022-07-03T05:10:55;6.40;;;1.38;;
37495;SDS011;23346;52.088;4.746;2022-07-03T05:13:21;4.53;;;1.27;;
37495;SDS011;23346;52.088;4.746;2022-07-03T05:15:47;4.97;;;1.35;;
37495;SDS011;23346;52.088;4.746;2022-07-03T05:18:13;5.85;;;1.98;;
37495;SDS011;23346;52.088;4.746;2022-07-03T05:20:39;8.70;;;1.25;;
37495;SDS011;23346;52.088;4.746;2022-07-03T05:23:05;7.82;;;1.30;;
37495;SDS011;23346;52.088;4.746;2022-07-03T05:25:31;7.38;;;1.90;;
37495;SDS011;23346;52.088;4.746;2022-07-03T05:27:57;7.10;;;1.40;;
37495;SDS011;23346;52.088;4.746;2022-07-03T05:30:24;6.75;;;1.63;;
37495;SDS011;23346;52.088;4.746;2022-07-03T05:32:51;5.38;;;1.45;;
37495;SDS011;23346;52.088;4.746;2022-07-03T05:35:17;6.55;;;1.70;;
37495;SDS011;23346;52.088;4.746;2022-07-03T05:37:43;2.08;;;1.25;;
37495;SDS011;23346;52.088;4.746;2022-07-03T05:40:09;4.82;;;1.52;;
37495;SDS011;23346;52.088;4.746;2022-07-03T05:42:35;9.63;;;1.83;;
37495;SDS011;23346;52.088;4.746;2022-07-03T05:45:01;4.38;;;1.10;;
37495;SDS011;23346;52.088;4.746;2022-07-03T05:47:27;9.32;;;1.35;;
37495;SDS011;23346;52.088;4.746;2022-07-03T05:49:53;4.72;;;1.13;;
37495;SDS011;23346;52.088;4.746;2022-07-03T05:52:19;6.20;;;1.40;;
37495;SDS011;23346;52.088;4.746;2022-07-03T05:54:45;3.10;;;1.02;;
37495;SDS011;23346;52.088;4.746;2022-07-03T05:57:11;8.07;;;1.70;;
37495;SDS011;23346;52.088;4.746;2022-07-03T05:59:38;8.13;;;1.58;;
37495;SDS011;23346;52.088;4.746;2022-07-03T06:02:04;8.77;;;2.03;;
37495;SDS011;23346;52.088;4.746;2022-07-03T06:04:30;12.05;;;1.33;;
37495;SDS011;23346;52.088;4.746;2022-07-03T06:06:56;5.07;;;1.45;;
37495;SDS011;23346;52.088;4.746;2022-07-03T06:09:22;6.30;;;1.20;;
37495;SDS011;23346;52.088;4.746;2022-07-03T06:11:48;6.97;;;1.55;;
37495;SDS011;23346;52.088;4.746;2022-07-03T06:14:14;7.35;;;1.58;;
37495;SDS011;23346;52.088;4.746;2022-07-03T06:16:40;6.85;;;1.90;;
37495;SDS011;23346;52.088;4.746;2022-07-03T06:19:07;8.90;;;2.72;;
37495;SDS011;23346;52.088;4.746;2022-07-03T06:21:33;5.28;;;1.90;;
37495;SDS011;23346;52.088;4.746;2022-07-03T06:23:59;6.70;;;2.17;;
37495;SDS011;23346;52.088;4.746;2022-07-03T06:26:25;8.20;;;1.92;;
37495;SDS011;23346;52.088;4.746;2022-07-03T06:28:52;8.05;;;1.50;;
37495;SDS011;23346;52.088;4.746;2022-07-03T06:31:18;7.28;;;1.67;;
37495;SDS011;23346;52.088;4.746;2022-07-03T06:33:44;10.77;;;1.73;;
37495;SDS011;23346;52.088;4.746;2022-07-03T06:36:10;3.28;;;1.08;;
37495;SDS011;23346;52.088;4.746;2022-07-03T06:38:36;6.70;;;1.50;;
37495;SDS011;23346;52.088;4.746;2022-07-03T06:41:02;4.30;;;1.00;;
37495;SDS011;23346;52.088;4.746;2022-07-03T06:43:28;4.38;;;1.13;;
37495;SDS011;23346;52.088;4.746;2022-07-03T06:45:54;4.43;;;1.10;;
37495;SDS011;23346;52.088;4.746;2022-07-03T06:48:20;5.50;;;0.90;;
37495;SDS011;23346;52.088;4.746;2022-07-03T06:50:46;6.28;;;1.00;;
37495;SDS011;23346;52.088;4.746;2022-07-03T06:53:12;4.63;;;0.85;;
37495;SDS011;23346;52.088;4.746;2022-07-03T06:55:38;6.90;;;1.25;;
37495;SDS011;23346;52.088;4.746;2022-07-03T06:58:04;5.28;;;1.10;;
37495;SDS011;23346;52.088;4.746;2022-07-03T07:00:30;5.05;;;0.90;;
37495;SDS011;23346;52.088;4.746;2022-07-03T07:02:56;5.00;;;1.00;;
37495;SDS011;23346;52.088;4.746;2022-07-03T07:05:22;2.80;;;0.98;;
37495;SDS011;23346;52.088;4.746;2022-07-03T07:07:48;5.15;;;0.77;;
37495;SDS011;23346;52.088;4.746;2022-07-03T07:10:15;5.30;;;1.27;;
37495;SDS011;23346;52.088;4.746;2022-07-03T07:12:41;5.05;;;1.15;;
37495;SDS011;23346;52.088;4.746;2022-07-03T07:15:07;4.43;;;1.33;;
37495;SDS011;23346;52.088;4.746;2022-07-03T07:17:33;4.15;;;1.10;;
37495;SDS011;23346;52.088;4.746;2022-07-03T07:19:59;4.05;;;1.00;;
37495;SDS011;23346;52.088;4.746;2022-07-03T07:22:25;7.03;;;1.10;;
37495;SDS011;23346;52.088;4.746;2022-07-03T07:24:51;6.47;;;1.05;;
37495;SDS011;23346;52.088;4.746;2022-07-03T07:27:18;5.97;;;1.15;;
37495;SDS011;23346;52.088;4.746;2022-07-03T07:29:44;7.32;;;1.20;;
37495;SDS011;23346;52.088;4.746;2022-07-03T07:32:10;8.93;;;1.17;;
37495;SDS011;23346;52.088;4.746;2022-07-03T07:34:35;4.40;;;1.08;;
37495;SDS011;23346;52.088;4.746;2022-07-03T07:37:02;5.82;;;1.20;;
37495;SDS011;23346;52.088;4.746;2022-07-03T07:39:28;4.68;;;1.13;;
37495;SDS011;23346;52.088;4.746;2022-07-03T07:41:53;2.30;;;0.80;;
37495;SDS011;23346;52.088;4.746;2022-07-03T07:44:19;4.28;;;1.13;;
37495;SDS011;23346;52.088;4.746;2022-07-03T07:46:45;3.65;;;1.20;;
37495;SDS011;23346;52.088;4.746;2022-07-03T07:49:12;4.93;;;1.00;;
37495;SDS011;23346;52.088;4.746;2022-07-03T07:51:37;5.95;;;1.42;;
37495;SDS011;23346;52.088;4.746;2022-07-03T07:54:03;5.85;;;1.33;;
37495;SDS011;23346;52.088;4.746;2022-07-03T07:56:29;7.97;;;1.33;;
37495;SDS011;23346;52.088;4.746;2022-07-03T07:58:55;6.32;;;1.10;;
37495;SDS011;23346;52.088;4.746;2022-07-03T08:01:21;6.45;;;0.98;;
37495;SDS011;23346;52.088;4.746;2022-07-03T08:04:06;3.03;;;0.90;;
37495;SDS011;23346;52.088;4.746;2022-07-03T08:06:51;4.30;;;1.10;;
37495;SDS011;23346;52.088;4.746;2022-07-03T08:09:17;5.38;;;0.88;;
37495;SDS011;23346;52.088;4.746;2022-07-03T08:11:43;1.73;;;0.80;;
37495;SDS011;23346;52.088;4.746;2022-07-03T08:14:09;6.18;;;1.33;;
37495;SDS011;23346;52.088;4.746;2022-07-03T08:16:35;4.22;;;1.08;;
37495;SDS011;23346;52.088;4.746;2022-07-03T08:19:03;5.05;;;1.20;;
37495;SDS011;23346;52.088;4.746;2022-07-03T08:21:29;5.78;;;1.42;;
37495;SDS011;23346;52.088;4.746;2022-07-03T08:23:56;6.95;;;1.20;;
37495;SDS011;23346;52.088;4.746;2022-07-03T08:26:22;3.58;;;0.95;;
37495;SDS011;23346;52.088;4.746;2022-07-03T08:28:48;2.38;;;0.85;;
37495;SDS011;23346;52.088;4.746;2022-07-03T08:31:14;2.03;;;0.90;;
37495;SDS011;23346;52.088;4.746;2022-07-03T08:33:40;4.63;;;1.00;;
37495;SDS011;23346;52.088;4.746;2022-07-03T08:36:06;5.05;;;1.17;;
37495;SDS011;23346;52.088;4.746;2022-07-03T08:38:33;2.85;;;1.00;;
37495;SDS011;23346;52.088;4.746;2022-07-03T08:40:59;7.55;;;1.00;;
37495;SDS011;23346;52.088;4.746;2022-07-03T08:43:26;2.35;;;1.17;;
37495;SDS011;23346;52.088;4.746;2022-07-03T08:45:52;2.40;;;0.75;;
37495;SDS011;23346;52.088;4.746;2022-07-03T08:48:18;3.70;;;0.93;;
37495;SDS011;23346;52.088;4.746;2022-07-03T08:50:45;7.75;;;1.00;;
37495;SDS011;23346;52.088;4.746;2022-07-03T08:53:12;2.75;;;0.60;;
37495;SDS011;23346;52.088;4.746;2022-07-03T08:55:38;4.88;;;1.20;;
37495;SDS011;23346;52.088;4.746;2022-07-03T08:58:04;6.55;;;1.00;;
37495;SDS011;23346;52.088;4.746;2022-07-03T09:00:32;4.07;;;1.08;;
37495;SDS011;23346;52.088;4.746;2022-07-03T09:02:59;3.30;;;1.00;;
37495;SDS011;23346;52.088;4.746;2022-07-03T09:05:25;3.22;;;0.80;;
37495;SDS011;23346;52.088;4.746;2022-07-03T09:07:52;5.82;;;1.17;;
37495;SDS011;23346;52.088;4.746;2022-07-03T09:10:18;3.83;;;1.00;;
37495;SDS011;23346;52.088;4.746;2022-07-03T09:12:45;5.82;;;1.20;;
37495;SDS011;23346;52.088;4.746;2022-07-03T09:15:12;4.40;;;0.90;;
37495;SDS011;23346;52.088;4.746;2022-07-03T09:17:38;1.98;;;0.80;;
37495;SDS011;23346;52.088;4.746;2022-07-03T09:20:05;8.35;;;0.90;;
37495;SDS011;23346;52.088;4.746;2022-07-03T09:22:32;3.85;;;1.05;;
37495;SDS011;23346;52.088;4.746;2022-07-03T09:25:05;3.47;;;1.10;;
37495;SDS011;23346;52.088;4.746;2022-07-03T09:27:33;4.78;;;0.90;;
37495;SDS011;23346;52.088;4.746;2022-07-03T09:30:09;5.15;;;0.88;;
37495;SDS011;23346;52.088;4.746;2022-07-03T09:40:15;2.95;;;0.88;;
37495;SDS011;23346;52.088;4.746;2022-07-03T09:42:48;3.35;;;1.10;;
37495;SDS011;23346;52.088;4.746;2022-07-03T09:45:21;2.25;;;0.85;;
37495;SDS011;23346;52.088;4.746;2022-07-03T09:47:47;6.95;;;1.30;;
37495;SDS011;23346;52.088;4.746;2022-07-03T09:50:14;3.38;;;1.20;;
37495;SDS011;23346;52.088;4.746;2022-07-03T09:57:42;2.35;;;1.10;;
37495;SDS011;23346;52.088;4.746;2022-07-03T10:00:16;5.43;;;1.10;;
37495;SDS011;23346;52.088;4.746;2022-07-03T10:05:29;2.05;;;1.20;;
37495;SDS011;23346;52.088;4.746;2022-07-03T10:08:03;5.18;;;1.02;;
37495;SDS011;23346;52.088;4.746;2022-07-03T10:10:30;2.95;;;1.45;;
37495;SDS011;23346;52.088;4.746;2022-07-03T10:12:56;2.85;;;1.20;;
37495;SDS011;23346;52.088;4.746;2022-07-03T10:15:23;2.42;;;1.10;;
37495;SDS011;23346;52.088;4.746;2022-07-03T10:17:50;2.95;;;1.20;;
37495;SDS011;23346;52.088;4.746;2022-07-03T10:20:30;3.28;;;0.90;;
37495;SDS011;23346;52.088;4.746;2022-07-03T10:22:58;2.78;;;0.82;;
37495;SDS011;23346;52.088;4.746;2022-07-03T10:25:24;1.38;;;0.77;;
37495;SDS011;23346;52.088;4.746;2022-07-03T10:27:50;2.92;;;1.00;;
37495;SDS011;23346;52.088;4.746;2022-07-03T10:30:18;5.30;;;0.88;;
37495;SDS011;23346;52.088;4.746;2022-07-03T10:32:45;2.67;;;1.02;;
37495;SDS011;23346;52.088;4.746;2022-07-03T10:35:13;2.10;;;0.82;;
37495;SDS011;23346;52.088;4.746;2022-07-03T10:38:24;2.50;;;0.70;;
37495;SDS011;23346;52.088;4.746;2022-07-03T10:40:31;3.30;;;1.00;;
37495;SDS011;23346;52.088;4.746;2022-07-03T10:43:26;2.88;;;1.15;;
37495;SDS011;23346;52.088;4.746;2022-07-03T10:46:15;3.47;;;1.00;;
37495;SDS011;23346;52.088;4.746;2022-07-03T10:48:58;3.85;;;0.70;;
37495;SDS011;23346;52.088;4.746;2022-07-03T10:51:24;2.28;;;0.90;;
37495;SDS011;23346;52.088;4.746;2022-07-03T10:54:10;2.08;;;0.90;;
37495;SDS011;23346;52.088;4.746;2022-07-03T10:59:21;3.58;;;0.80;;
37495;SDS011;23346;52.088;4.746;2022-07-03T11:01:47;2.53;;;0.70;;
37495;SDS011;23346;52.088;4.746;2022-07-03T11:04:13;4.35;;;1.08;;
37495;SDS011;23346;52.088;4.746;2022-07-03T11:09:06;3.03;;;1.20;;
37495;SDS011;23346;52.088;4.746;2022-07-03T11:14:25;2.40;;;0.80;;
37495;SDS011;23346;52.088;4.746;2022-07-03T11:19:36;1.13;;;0.80;;
37495;SDS011;23346;52.088;4.746;2022-07-03T11:22:03;1.63;;;0.70;;
37495;SDS011;23346;52.088;4.746;2022-07-03T11:24:43;1.48;;;0.68;;
37495;SDS011;23346;52.088;4.746;2022-07-03T11:27:25;2.92;;;0.80;;
37495;SDS011;23346;52.088;4.746;2022-07-03T11:29:56;2.95;;;0.60;;
37495;SDS011;23346;52.088;4.746;2022-07-03T11:35:07;2.53;;;0.60;;
37495;SDS011;23346;52.088;4.746;2022-07-03T11:37:33;2.47;;;0.65;;
37495;SDS011;23346;52.088;4.746;2022-07-03T11:40:00;2.65;;;0.50;;
37495;SDS011;23346;52.088;4.746;2022-07-03T11:42:32;0.47;;;0.40;;
37495;SDS011;23346;52.088;4.746;2022-07-03T11:44:58;1.13;;;0.60;;
37495;SDS011;23346;52.088;4.746;2022-07-03T11:47:26;3.47;;;1.27;;
37495;SDS011;23346;52.088;4.746;2022-07-03T11:49:52;1.30;;;0.40;;
37495;SDS011;23346;52.088;4.746;2022-07-03T11:52:31;2.50;;;0.63;;
37495;SDS011;23346;52.088;4.746;2022-07-03T11:54:58;2.75;;;0.45;;
37495;SDS011;23346;52.088;4.746;2022-07-03T11:57:24;5.53;;;0.60;;
37495;SDS011;23346;52.088;4.746;2022-07-03T11:59:51;5.57;;;1.02;;
37495;SDS011;23346;52.088;4.746;2022-07-03T12:02:19;2.72;;;0.60;;
37495;SDS011;23346;52.088;4.746;2022-07-03T12:04:45;1.48;;;0.50;;
37495;SDS011;23346;52.088;4.746;2022-07-03T12:07:11;2.00;;;0.50;;
37495;SDS011;23346;52.088;4.746;2022-07-03T12:09:37;2.10;;;0.57;;
37495;SDS011;23346;52.088;4.746;2022-07-03T12:12:04;0.93;;;0.50;;
37495;SDS011;23346;52.088;4.746;2022-07-03T12:17:12;1.98;;;0.45;;
37495;SDS011;23346;52.088;4.746;2022-07-03T12:19:49;4.38;;;0.63;;
37495;SDS011;23346;52.088;4.746;2022-07-03T12:22:22;2.22;;;0.60;;
37495;SDS011;23346;52.088;4.746;2022-07-03T12:24:58;1.85;;;0.40;;
37495;SDS011;23346;52.088;4.746;2022-07-03T12:27:26;3.30;;;0.30;;
37495;SDS011;23346;52.088;4.746;2022-07-03T12:29:52;2.58;;;0.40;;
37495;SDS011;23346;52.088;4.746;2022-07-03T12:32:18;3.60;;;0.50;;
37495;SDS011;23346;52.088;4.746;2022-07-03T12:34:44;5.47;;;0.70;;
37495;SDS011;23346;52.088;4.746;2022-07-03T12:37:10;2.15;;;0.68;;
37495;SDS011;23346;52.088;4.746;2022-07-03T12:39:46;3.75;;;0.75;;
37495;SDS011;23346;52.088;4.746;2022-07-03T12:42:16;3.10;;;0.65;;
37495;SDS011;23346;52.088;4.746;2022-07-03T12:44:42;2.22;;;0.60;;
37495;SDS011;23346;52.088;4.746;2022-07-03T12:47:08;5.90;;;0.68;;
37495;SDS011;23346;52.088;4.746;2022-07-03T12:49:34;1.45;;;0.50;;
37495;SDS011;23346;52.088;4.746;2022-07-03T12:52:00;4.78;;;0.68;;
37495;SDS011;23346;52.088;4.746;2022-07-03T12:54:35;1.05;;;0.55;;
37495;SDS011;23346;52.088;4.746;2022-07-03T12:57:10;2.88;;;0.82;;
37495;SDS011;23346;52.088;4.746;2022-07-03T13:02:31;3.80;;;0.73;;
37495;SDS011;23346;52.088;4.746;2022-07-03T13:04:58;4.00;;;0.80;;
37495;SDS011;23346;52.088;4.746;2022-07-03T13:07:27;2.50;;;0.50;;
37495;SDS011;23346;52.088;4.746;2022-07-03T13:09:54;2.88;;;0.55;;
37495;SDS011;23346;52.088;4.746;2022-07-03T13:12:20;1.35;;;0.50;;
37495;SDS011;23346;52.088;4.746;2022-07-03T13:15:00;0.95;;;0.40;;
37495;SDS011;23346;52.088;4.746;2022-07-03T13:20:11;1.10;;;0.45;;
37495;SDS011;23346;52.088;4.746;2022-07-03T13:22:37;1.25;;;0.40;;
37495;SDS011;23346;52.088;4.746;2022-07-03T13:25:03;3.95;;;0.88;;
37495;SDS011;23346;52.088;4.746;2022-07-03T13:27:29;3.67;;;0.75;;
37495;SDS011;23346;52.088;4.746;2022-07-03T13:29:55;4.60;;;0.60;;
37495;SDS011;23346;52.088;4.746;2022-07-03T13:32:21;2.15;;;0.70;;
37495;SDS011;23346;52.088;4.746;2022-07-03T13:34:47;2.28;;;0.57;;
37495;SDS011;23346;52.088;4.746;2022-07-03T13:37:12;2.90;;;0.88;;
37495;SDS011;23346;52.088;4.746;2022-07-03T13:39:38;1.45;;;0.80;;
37495;SDS011;23346;52.088;4.746;2022-07-03T13:42:05;1.73;;;0.90;;
37495;SDS011;23346;52.088;4.746;2022-07-03T13:44:35;2.83;;;0.88;;
37495;SDS011;23346;52.088;4.746;2022-07-03T13:47:01;4.22;;;1.30;;
37495;SDS011;23346;52.088;4.746;2022-07-03T13:49:27;2.95;;;1.00;;
37495;SDS011;23346;52.088;4.746;2022-07-03T13:51:53;1.58;;;0.70;;
37495;SDS011;23346;52.088;4.746;2022-07-03T13:54:19;1.08;;;0.50;;
37495;SDS011;23346;52.088;4.746;2022-07-03T13:56:45;0.95;;;0.50;;
37495;SDS011;23346;52.088;4.746;2022-07-03T13:59:11;1.92;;;0.50;;
37495;SDS011;23346;52.088;4.746;2022-07-03T14:01:37;3.30;;;0.52;;
37495;SDS011;23346;52.088;4.746;2022-07-03T14:04:03;1.92;;;0.50;;
37495;SDS011;23346;52.088;4.746;2022-07-03T14:06:29;2.60;;;0.70;;
37495;SDS011;23346;52.088;4.746;2022-07-03T14:08:55;3.13;;;0.70;;
37495;SDS011;23346;52.088;4.746;2022-07-03T14:11:21;3.78;;;1.30;;
37495;SDS011;23346;52.088;4.746;2022-07-03T14:13:47;3.28;;;0.70;;
37495;SDS011;23346;52.088;4.746;2022-07-03T14:16:13;2.47;;;0.63;;
37495;SDS011;23346;52.088;4.746;2022-07-03T14:18:40;4.95;;;0.95;;
37495;SDS011;23346;52.088;4.746;2022-07-03T14:21:06;3.50;;;0.85;;
37495;SDS011;23346;52.088;4.746;2022-07-03T14:23:32;2.88;;;0.90;;
37495;SDS011;23346;52.088;4.746;2022-07-03T14:26:01;4.95;;;1.10;;
37495;SDS011;23346;52.088;4.746;2022-07-03T14:28:27;4.22;;;0.90;;
37495;SDS011;23346;52.088;4.746;2022-07-03T14:31:11;4.22;;;0.80;;
37495;SDS011;23346;52.088;4.746;2022-07-03T14:33:52;2.92;;;1.00;;
37495;SDS011;23346;52.088;4.746;2022-07-03T14:36:18;2.30;;;0.73;;
37495;SDS011;23346;52.088;4.746;2022-07-03T14:38:44;3.55;;;0.70;;
37495;SDS011;23346;52.088;4.746;2022-07-03T14:41:10;3.60;;;0.60;;
37495;SDS011;23346;52.088;4.746;2022-07-03T14:43:37;2.58;;;0.60;;
37495;SDS011;23346;52.088;4.746;2022-07-03T14:46:02;2.17;;;0.55;;
37495;SDS011;23346;52.088;4.746;2022-07-03T14:48:29;3.10;;;0.80;;
37495;SDS011;23346;52.088;4.746;2022-07-03T14:50:55;3.53;;;0.60;;
37495;SDS011;23346;52.088;4.746;2022-07-03T14:53:21;3.53;;;0.63;;
37495;SDS011;23346;52.088;4.746;2022-07-03T14:55:47;4.22;;;0.60;;
37495;SDS011;23346;52.088;4.746;2022-07-03T14:58:18;3.70;;;0.52;;
37495;SDS011;23346;52.088;4.746;2022-07-03T15:00:47;2.08;;;0.45;;
37495;SDS011;23346;52.088;4.746;2022-07-03T15:03:17;4.68;;;0.77;;
37495;SDS011;23346;52.088;4.746;2022-07-03T15:05:44;4.82;;;0.60;;
37495;SDS011;23346;52.088;4.746;2022-07-03T15:08:22;4.97;;;0.60;;
37495;SDS011;23346;52.088;4.746;2022-07-03T15:10:54;3.17;;;0.50;;
37495;SDS011;23346;52.088;4.746;2022-07-03T15:13:20;3.42;;;0.80;;
37495;SDS011;23346;52.088;4.746;2022-07-03T15:15:47;1.13;;;0.45;;
37495;SDS011;23346;52.088;4.746;2022-07-03T15:18:18;1.45;;;0.40;;
37495;SDS011;23346;52.088;4.746;2022-07-03T15:20:45;2.72;;;0.60;;
37495;SDS011;23346;52.088;4.746;2022-07-03T15:23:11;3.17;;;0.70;;
37495;SDS011;23346;52.088;4.746;2022-07-03T15:25:38;5.75;;;1.20;;
37495;SDS011;23346;52.088;4.746;2022-07-03T15:28:04;2.42;;;0.47;;
37495;SDS011;23346;52.088;4.746;2022-07-03T15:30:34;3.72;;;0.60;;
37495;SDS011;23346;52.088;4.746;2022-07-03T15:33:00;3.88;;;0.75;;
37495;SDS011;23346;52.088;4.746;2022-07-03T15:35:26;3.38;;;0.68;;
37495;SDS011;23346;52.088;4.746;2022-07-03T15:38:00;3.05;;;0.70;;
37495;SDS011;23346;52.088;4.746;2022-07-03T15:40:30;1.65;;;0.55;;
37495;SDS011;23346;52.088;4.746;2022-07-03T15:48:03;4.45;;;0.90;;
37495;SDS011;23346;52.088;4.746;2022-07-03T15:53:00;2.67;;;0.70;;
37495;SDS011;23346;52.088;4.746;2022-07-03T15:55:26;2.97;;;0.70;;
37495;SDS011;23346;52.088;4.746;2022-07-03T15:57:58;6.43;;;0.70;;
37495;SDS011;23346;52.088;4.746;2022-07-03T16:00:26;4.95;;;0.80;;
37495;SDS011;23346;52.088;4.746;2022-07-03T16:05:32;2.53;;;0.60;;